Time,TemperatureF,DewpointF,PressureIn,WindDirection,WindDirectionDegrees,WindSpeedMPH,WindSpeedGustMPH,Humidity,HourlyPrecipIn,Conditions,Clouds,dailyrainin,SolarRadiationWatts/m^2,SoftwareType,DateUTC
2013-01-14 00:22:00,-5.0,-10.0,-100.00,ENE,62,1.0,5.0,77,0.00,,,0.00,0.000000,,2013-01-14 07:22:00,
2013-01-14 00:33:00,-5.0,-10.0,-100.00,ENE,62,1.0,5.0,77,0.00,,,0.00,0.000000,,2013-01-14 07:33:00,
2013-01-14 00:42:00,-5.0,-10.0,-100.00,ENE,62,1.0,5.0,77,0.00,,,0.00,0.000000,,2013-01-14 07:42:00,
2013-01-14 00:52:00,-5.0,-10.0,-100.00,ENE,62,1.0,5.0,77,0.00,,,0.00,0.000000,,2013-01-14 07:52:00,
2013-01-14 01:22:00,-7.0,-13.0,-100.00,ESE,109,1.0,4.0,75,0.00,,,0.00,0.000000,,2013-01-14 08:22:00,
2013-01-14 01:33:00,-7.0,-13.0,-100.00,ESE,109,1.0,4.0,75,0.00,,,0.00,0.000000,,2013-01-14 08:33:00,
2013-01-14 01:42:00,-7.0,-13.0,-100.00,ESE,109,1.0,4.0,75,0.00,,,0.00,0.000000,,2013-01-14 08:42:00,
2013-01-14 01:52:00,-7.0,-13.0,-100.00,ESE,109,1.0,4.0,75,0.00,,,0.00,0.000000,,2013-01-14 08:52:00,
2013-01-14 02:22:00,-9.0,-15.0,-100.00,East,79,3.0,3.0,74,0.00,,,0.00,0.000000,,2013-01-14 09:22:00,
2013-01-14 02:33:00,-9.0,-15.0,-100.00,East,79,3.0,3.0,74,0.00,,,0.00,0.000000,,2013-01-14 09:33:00,
2013-01-14 02:43:00,-9.0,-15.0,-100.00,East,79,3.0,3.0,74,0.00,,,0.00,0.000000,,2013-01-14 09:43:00,
2013-01-14 02:52:00,-9.0,-15.0,-100.00,East,79,3.0,3.0,74,0.00,,,0.00,0.000000,,2013-01-14 09:52:00,
2013-01-14 03:22:00,-9.0,-15.0,-100.00,ENE,73,3.0,5.0,73,0.00,,,0.00,0.000000,,2013-01-14 10:22:00,
2013-01-14 03:32:00,-9.0,-15.0,-100.00,ENE,73,3.0,5.0,73,0.00,,,0.00,0.000000,,2013-01-14 10:32:00,
2013-01-14 03:42:00,-9.0,-15.0,-100.00,ENE,73,3.0,5.0,73,0.00,,,0.00,0.000000,,2013-01-14 10:42:00,
2013-01-14 03:52:00,-9.0,-15.0,-100.00,ENE,73,3.0,5.0,73,0.00,,,0.00,0.000000,,2013-01-14 10:52:00,
2013-01-14 04:22:00,-10.0,-16.0,-100.00,East,90,3.0,4.0,73,0.00,,,0.00,0.000000,,2013-01-14 11:22:00,
2013-01-14 04:32:00,-10.0,-16.0,-100.00,East,90,3.0,4.0,73,0.00,,,0.00,0.000000,,2013-01-14 11:32:00,
2013-01-14 04:42:00,-10.0,-16.0,-100.00,East,90,3.0,4.0,73,0.00,,,0.00,0.000000,,2013-01-14 11:42:00,
2013-01-14 04:53:00,-10.0,-16.0,-100.00,East,90,3.0,4.0,73,0.00,,,0.00,0.000000,,2013-01-14 11:53:00,
2013-01-14 05:23:00,-11.0,-17.0,-100.00,East,94,2.0,5.0,72,0.00,,,0.00,0.000000,,2013-01-14 12:23:00,
2013-01-14 05:33:00,-11.0,-17.0,-100.00,East,94,2.0,5.0,72,0.00,,,0.00,0.000000,,2013-01-14 12:33:00,
2013-01-14 05:43:00,-11.0,-17.0,-100.00,East,94,2.0,5.0,72,0.00,,,0.00,0.000000,,2013-01-14 12:43:00,
2013-01-14 05:52:00,-11.0,-17.0,-100.00,East,94,2.0,5.0,72,0.00,,,0.00,0.000000,,2013-01-14 12:52:00,
2013-01-14 06:23:00,-10.0,-16.0,-100.00,East,96,3.0,4.0,73,0.00,,,0.00,0.000000,,2013-01-14 13:23:00,
2013-01-14 06:33:00,-10.0,-16.0,-100.00,East,96,3.0,4.0,73,0.00,,,0.00,0.000000,,2013-01-14 13:33:00,
2013-01-14 06:43:00,-10.0,-16.0,-100.00,East,96,3.0,4.0,73,0.00,,,0.00,0.000000,,2013-01-14 13:43:00,
2013-01-14 06:53:00,-10.0,-16.0,-100.00,East,96,3.0,4.0,73,0.00,,,0.00,0.000000,,2013-01-14 13:53:00,
2013-01-14 07:23:00,-10.0,-17.0,-100.00,East,88,3.0,6.0,72,0.00,,,0.00,0.000000,,2013-01-14 14:23:00,
2013-01-14 07:33:00,-10.0,-17.0,-100.00,East,88,3.0,6.0,72,0.00,,,0.00,0.000000,,2013-01-14 14:33:00,
2013-01-14 07:43:00,-10.0,-17.0,-100.00,East,88,3.0,6.0,72,0.00,,,0.00,0.000000,,2013-01-14 14:43:00,
2013-01-14 07:53:00,-10.0,-17.0,-100.00,East,88,3.0,6.0,72,0.00,,,0.00,0.000000,,2013-01-14 14:53:00,
2013-01-14 08:23:00,-11.0,-17.0,-100.00,East,88,3.0,4.0,72,0.00,,,0.00,8.000000,,2013-01-14 15:23:00,
2013-01-14 08:33:00,-11.0,-17.0,-100.00,East,88,3.0,4.0,72,0.00,,,0.00,8.000000,,2013-01-14 15:33:00,
2013-01-14 08:43:00,-11.0,-17.0,-100.00,East,88,3.0,4.0,72,0.00,,,0.00,8.000000,,2013-01-14 15:43:00,
2013-01-14 08:53:00,-11.0,-17.0,-100.00,East,88,3.0,4.0,72,0.00,,,0.00,8.000000,,2013-01-14 15:53:00,
2013-01-14 09:23:00,-3.0,-11.0,-100.00,East,99,3.0,6.0,68,0.00,,,0.00,79.000000,,2013-01-14 16:23:00,
2013-01-14 09:33:00,-3.0,-11.0,-100.00,East,99,3.0,6.0,68,0.00,,,0.00,79.000000,,2013-01-14 16:33:00,
2013-01-14 09:43:00,-3.0,-11.0,-100.00,East,99,3.0,6.0,68,0.00,,,0.00,79.000000,,2013-01-14 16:43:00,
2013-01-14 09:53:00,-3.0,-11.0,-100.00,East,99,3.0,6.0,68,0.00,,,0.00,79.000000,,2013-01-14 16:53:00,
2013-01-14 10:23:00,4.0,-6.0,-100.00,SE,134,2.0,5.0,63,0.00,,,0.00,179.000000,,2013-01-14 17:23:00,
2013-01-14 10:33:00,4.0,-6.0,-100.00,SE,134,2.0,5.0,63,0.00,,,0.00,179.000000,,2013-01-14 17:33:00,
2013-01-14 10:43:00,4.0,-6.0,-100.00,SE,134,2.0,5.0,63,0.00,,,0.00,179.000000,,2013-01-14 17:43:00,
2013-01-14 10:53:00,4.0,-6.0,-100.00,SE,134,2.0,5.0,63,0.00,,,0.00,179.000000,,2013-01-14 17:53:00,
2013-01-14 11:23:00,1.0,-9.0,-100.00,WSW,249,4.0,8.0,61,0.00,,,0.00,285.000000,,2013-01-14 18:23:00,
2013-01-14 11:33:00,1.0,-9.0,-100.00,WSW,249,4.0,8.0,61,0.00,,,0.00,285.000000,,2013-01-14 18:33:00,
2013-01-14 11:43:00,1.0,-9.0,-100.00,WSW,249,4.0,8.0,61,0.00,,,0.00,285.000000,,2013-01-14 18:43:00,
2013-01-14 11:52:00,1.0,-9.0,-100.00,WSW,249,4.0,8.0,61,0.00,,,0.00,285.000000,,2013-01-14 18:52:00,
2013-01-14 12:22:00,3.0,-8.0,-100.00,WSW,258,7.0,9.0,58,0.00,,,0.00,410.000000,,2013-01-14 19:22:00,
2013-01-14 12:33:00,3.0,-8.0,-100.00,WSW,258,7.0,9.0,58,0.00,,,0.00,410.000000,,2013-01-14 19:33:00,
2013-01-14 12:43:00,3.0,-8.0,-100.00,WSW,258,7.0,9.0,58,0.00,,,0.00,410.000000,,2013-01-14 19:43:00,
2013-01-14 12:52:00,3.0,-8.0,-100.00,WSW,258,7.0,9.0,58,0.00,,,0.00,410.000000,,2013-01-14 19:52:00,
2013-01-14 13:22:00,2.0,-9.0,-100.00,WSW,257,11.0,14.0,60,0.00,,,0.00,441.000000,,2013-01-14 20:22:00,
2013-01-14 13:33:00,2.0,-9.0,-100.00,WSW,257,11.0,14.0,60,0.00,,,0.00,441.000000,,2013-01-14 20:33:00,
2013-01-14 13:43:00,2.0,-9.0,-100.00,WSW,257,11.0,14.0,60,0.00,,,0.00,441.000000,,2013-01-14 20:43:00,
2013-01-14 13:53:00,2.0,-9.0,-100.00,WSW,257,11.0,14.0,60,0.00,,,0.00,441.000000,,2013-01-14 20:53:00,
2013-01-14 14:23:00,4.0,-8.0,-100.00,WSW,256,11.0,17.0,56,0.00,,,0.00,483.000000,,2013-01-14 21:23:00,
2013-01-14 14:33:00,4.0,-8.0,-100.00,WSW,256,11.0,17.0,56,0.00,,,0.00,483.000000,,2013-01-14 21:33:00,
2013-01-14 14:42:00,4.0,-8.0,-100.00,WSW,256,11.0,17.0,56,0.00,,,0.00,483.000000,,2013-01-14 21:42:00,
2013-01-14 14:53:00,4.0,-8.0,-100.00,WSW,256,11.0,17.0,56,0.00,,,0.00,483.000000,,2013-01-14 21:53:00,
2013-01-14 15:23:00,5.0,-8.0,-100.00,West,262,10.0,18.0,53,0.00,,,0.00,430.000000,,2013-01-14 22:23:00,
2013-01-14 15:33:00,5.0,-8.0,-100.00,West,262,10.0,18.0,53,0.00,,,0.00,430.000000,,2013-01-14 22:33:00,
2013-01-14 15:43:00,5.0,-8.0,-100.00,West,262,10.0,18.0,53,0.00,,,0.00,430.000000,,2013-01-14 22:43:00,
2013-01-14 15:52:00,5.0,-8.0,-100.00,West,262,10.0,18.0,53,0.00,,,0.00,430.000000,,2013-01-14 22:52:00,
2013-01-14 16:23:00,4.0,-9.0,-100.00,WSW,252,10.0,16.0,55,0.00,,,0.00,285.000000,,2013-01-14 23:23:00,
2013-01-14 16:33:00,4.0,-9.0,-100.00,WSW,252,10.0,16.0,55,0.00,,,0.00,285.000000,,2013-01-14 23:33:00,
2013-01-14 16:43:00,4.0,-9.0,-100.00,WSW,252,10.0,16.0,55,0.00,,,0.00,285.000000,,2013-01-14 23:43:00,
2013-01-14 16:52:00,4.0,-9.0,-100.00,WSW,252,10.0,16.0,55,0.00,,,0.00,285.000000,,2013-01-14 23:52:00,
2013-01-14 17:22:00,0.0,-10.0,-100.00,WNW,284,4.0,14.0,63,0.00,,,0.00,89.000000,,2013-01-15 00:22:00,
2013-01-14 17:33:00,0.0,-10.0,-100.00,WNW,284,4.0,14.0,63,0.00,,,0.00,89.000000,,2013-01-15 00:33:00,
2013-01-14 17:43:00,0.0,-10.0,-100.00,WNW,284,4.0,14.0,63,0.00,,,0.00,89.000000,,2013-01-15 00:43:00,
2013-01-14 17:52:00,0.0,-10.0,-100.00,WNW,284,4.0,14.0,63,0.00,,,0.00,89.000000,,2013-01-15 00:52:00,
2013-01-14 18:22:00,-3.0,-11.0,-100.00,NW,319,4.0,6.0,66,0.00,,,0.00,3.000000,,2013-01-15 01:22:00,
2013-01-14 18:32:00,-3.0,-11.0,-100.00,NW,319,4.0,6.0,66,0.00,,,0.00,3.000000,,2013-01-15 01:32:00,
2013-01-14 18:43:00,-3.0,-11.0,-100.00,NW,319,4.0,6.0,66,0.00,,,0.00,3.000000,,2013-01-15 01:43:00,
2013-01-14 18:52:00,-3.0,-11.0,-100.00,NW,319,4.0,6.0,66,0.00,,,0.00,3.000000,,2013-01-15 01:52:00,
2013-01-14 19:22:00,-5.0,-12.0,-100.00,WNW,288,3.0,5.0,71,0.00,,,0.00,0.000000,,2013-01-15 02:22:00,
2013-01-14 19:32:00,-5.0,-12.0,-100.00,WNW,288,3.0,5.0,71,0.00,,,0.00,0.000000,,2013-01-15 02:32:00,
2013-01-14 19:42:00,-5.0,-12.0,-100.00,WNW,288,3.0,5.0,71,0.00,,,0.00,0.000000,,2013-01-15 02:42:00,
2013-01-14 19:52:00,-5.0,-12.0,-100.00,WNW,288,3.0,5.0,71,0.00,,,0.00,0.000000,,2013-01-15 02:52:00,
2013-01-14 20:22:00,-6.0,-13.0,-100.00,NNW,342,0.0,5.0,72,0.00,,,0.00,0.000000,,2013-01-15 03:22:00,
2013-01-14 20:33:00,-6.0,-13.0,-100.00,NNW,342,0.0,5.0,72,0.00,,,0.00,0.000000,,2013-01-15 03:33:00,
2013-01-14 20:42:00,-6.0,-13.0,-100.00,NNW,342,0.0,5.0,72,0.00,,,0.00,0.000000,,2013-01-15 03:42:00,
2013-01-14 20:52:00,-6.0,-13.0,-100.00,NNW,342,0.0,5.0,72,0.00,,,0.00,0.000000,,2013-01-15 03:52:00,
2013-01-14 21:22:00,-8.0,-14.0,-100.00,ENE,69,2.0,3.0,73,0.00,,,0.00,0.000000,,2013-01-15 04:22:00,
2013-01-14 21:32:00,-8.0,-14.0,-100.00,ENE,69,2.0,3.0,73,0.00,,,0.00,0.000000,,2013-01-15 04:32:00,
2013-01-14 21:42:00,-8.0,-14.0,-100.00,ENE,69,2.0,3.0,73,0.00,,,0.00,0.000000,,2013-01-15 04:42:00,
2013-01-14 21:52:00,-8.0,-14.0,-100.00,ENE,69,2.0,3.0,73,0.00,,,0.00,0.000000,,2013-01-15 04:52:00,
2013-01-14 22:22:00,-8.0,-15.0,-100.00,ENE,69,2.0,3.0,71,0.00,,,-99.99,0.000000,,2013-01-15 05:22:00,
2013-01-14 22:33:00,-8.0,-15.0,-100.00,ENE,69,2.0,3.0,71,0.00,,,-99.99,0.000000,,2013-01-15 05:33:00,
2013-01-14 22:42:00,-8.0,-15.0,-100.00,ENE,69,2.0,3.0,71,0.00,,,-99.99,0.000000,,2013-01-15 05:42:00,
2013-01-14 22:52:00,-8.0,-15.0,-100.00,ENE,69,2.0,3.0,71,0.00,,,-99.99,0.000000,,2013-01-15 05:52:00,
2013-01-14 23:22:00,-9.0,-16.0,-100.00,ENE,57,4.0,5.0,72,0.00,,,0.00,0.000000,,2013-01-15 06:22:00,
2013-01-14 23:33:00,-9.0,-16.0,-100.00,ENE,57,4.0,5.0,72,0.00,,,0.00,0.000000,,2013-01-15 06:33:00,
2013-01-14 23:42:00,-9.0,-16.0,-100.00,ENE,57,4.0,5.0,72,0.00,,,0.00,0.000000,,2013-01-15 06:42:00,
2013-01-14 23:52:00,-9.0,-16.0,-100.00,ENE,57,4.0,5.0,72,0.00,,,0.00,0.000000,,2013-01-15 06:52:00,